Surprise, AZ

1:27 PM MST on July 30, 2016 (GMT -0700)
Kingswood Parke | | Change Station

Elev 1227 ft 33.64 °N, 112.37 °W | Updated 24 seconds ago

Clear
Clear
103.3 °F
Feels Like 107 °F
N
4.5
Wind Variable Wind from SW
Gusts 6.9 mph

Today
High -- | Low -- °F
--% Chance of Precip.
Yesterday
High -- | Low -- °F
Precip. -- in
Pressure 29.80 in
Visibility 10.0 miles
Clouds Clear
Heat Index 107 °F
Dew Point 64 °F
Humidity 28%
Rainfall 0.00 in
Snow Depth Not available.
5:40 AM 7:30 PM
Waning Crescent, 11% visible
METAR KLUF 301958Z AUTO 21011KT 10SM CLR 36/17 A2984 RMK AO2 SLP090 T03580173 $
Pressure 29.80 in
Visibility 10.0 miles
Clouds Clear
Heat Index 107 °F
Dew Point 64 °F
Humidity 28%
Rainfall 0.00 in
Snow Depth Not available.
5:40 AM 7:30 PM
Waning Crescent, 11% visible
METAR KLUF 301958Z AUTO 21011KT 10SM CLR 36/17 A2984 RMK AO2 SLP090 T03580173 $

10-Day Weather Forecast

Almanac

Astronomy

Jul. 30, 2016 Rise Set
Actual Time
Civil Twilight
Nautical Twilight
Astronomical Twilight
Moon
Length of Visible Light
Length of Day
Tomorrow will be .
, % of the Moon is Illuminated

Today's Extremes

State Highs State Lows

Community

WunderPhotos

Upload Photos

1,928,630 photos uploaded!

WunderBlog® & News

Nearby

Air Quality

  Air Quality AQ Index Pollutant
Not available.

Snow Depth

Station Depth Elevation

Earthquake Activity

City Distance Mag. Time & Date
Minimum magnitude displayed is 2.5.

Coastal Water Temperatures

Place Temperature

Stations

Nearby Weather Stations

Station Location Temp. Windchill Dew Point Humidity Wind Precip. Elev Updated Type
                   

Watches & Warnings

There are currently no watches in effect.